createdAt,value
2022-10-21T00:02:08.299Z,94811.75
2022-10-21T00:04:35.960Z,94806.84
2022-10-21T00:07:04.068Z,94805.78
2022-10-21T00:09:31.922Z,94791.00
2022-10-21T00:11:59.531Z,94793.75
2022-10-21T00:14:28.709Z,94794.88
2022-10-21T00:16:56.359Z,94793.22
2022-10-21T00:19:23.988Z,94795.41
2022-10-21T00:21:51.691Z,94790.72
2022-10-21T00:24:19.461Z,94794.84
2022-10-21T00:26:47.093Z,94787.72
2022-10-21T00:29:14.861Z,94794.84
2022-10-21T00:31:43.885Z,94798.09
2022-10-21T00:34:11.547Z,94794.78
2022-10-21T00:36:39.263Z,94797.25
2022-10-21T00:39:07.001Z,94781.09
2022-10-21T00:41:34.673Z,94787.06
2022-10-21T00:44:04.586Z,94787.38
2022-10-21T00:46:38.622Z,94786.00
2022-10-21T00:49:13.703Z,94786.28
2022-10-21T00:51:41.462Z,94779.75
2022-10-21T00:54:10.086Z,94779.22
2022-10-21T00:56:37.857Z,94776.75
2022-10-21T00:59:06.193Z,94773.75
2022-10-21T01:01:33.890Z,94792.63
2022-10-21T01:04:03.691Z,94796.72
2022-10-21T01:06:33.321Z,94793.19
2022-10-21T01:09:01.281Z,94798.13
2022-10-21T01:11:29.594Z,94787.75
2022-10-21T01:14:11.513Z,94783.94
2022-10-21T01:16:47.364Z,94792.13
2022-10-21T01:19:34.583Z,94778.47
2022-10-21T01:22:10.898Z,94770.25
2022-10-21T01:24:55.608Z,94763.69
2022-10-21T01:27:30.664Z,94761.47
2022-10-21T01:30:30.640Z,94768.56
2022-10-21T01:33:08.096Z,94762.59
2022-10-21T01:35:39.565Z,94749.47
2022-10-21T01:38:10.620Z,94757.13
2022-10-21T01:40:43.786Z,94750.25
2022-10-21T01:43:17.199Z,94748.56
2022-10-21T01:45:48.820Z,94740.38
2022-10-21T01:48:19.377Z,94743.69
2022-10-21T01:50:49.781Z,94744.22
2022-10-21T01:53:18.002Z,94739.28
2022-10-21T01:55:46.597Z,94729.16
2022-10-21T01:58:17.743Z,94724.28
2022-10-21T02:00:47.745Z,94728.63
2022-10-21T02:03:18.394Z,94722.09
2022-10-21T02:05:46.136Z,94717.97
2022-10-21T02:08:13.875Z,94707.31
2022-10-21T02:10:45.001Z,94708.69
2022-10-21T02:13:15.398Z,94704.28
2022-10-21T02:15:44.182Z,94700.75
2022-10-21T02:18:20.839Z,94704.28
2022-10-21T02:20:50.934Z,94700.44
2022-10-21T02:23:20.786Z,94697.72
2022-10-21T02:25:51.355Z,94686.53
2022-10-21T02:28:19.852Z,94683.22
2022-10-21T02:30:56.756Z,94689.53
2022-10-21T02:33:34.829Z,94692.00
2022-10-21T02:36:08.466Z,94681.88
2022-10-21T02:38:40.123Z,94676.69
2022-10-21T02:41:11.026Z,94674.22
2022-10-21T02:43:42.303Z,94673.94
2022-10-21T02:46:11.451Z,94662.22
2022-10-21T02:48:42.046Z,94663.31
2022-10-21T02:51:09.846Z,94654.28
2022-10-21T02:53:38.137Z,94653.75
2022-10-21T02:56:06.246Z,94657.28
2022-10-21T02:58:34.150Z,94662.50
2022-10-21T03:01:01.986Z,94671.25
2022-10-21T03:03:30.509Z,94678.63
2022-10-21T03:05:59.551Z,94679.72
2022-10-21T03:08:27.296Z,94683.56
2022-10-21T03:10:55.100Z,94672.88
2022-10-21T03:13:23.011Z,94674.50
2022-10-21T03:15:50.886Z,94672.88
2022-10-21T03:18:18.977Z,94674.81
2022-10-21T03:20:50.326Z,94669.63
2022-10-21T03:23:19.485Z,94654.03
2022-10-21T03:25:47.309Z,94656.22
2022-10-21T03:28:15.074Z,94668.50
2022-10-21T03:30:42.784Z,94674.56
2022-10-21T03:33:10.472Z,94677.84
2022-10-21T03:35:38.123Z,94678.34
2022-10-21T03:38:05.841Z,94675.06
2022-10-21T03:40:34.999Z,94674.50
2022-10-21T03:43:02.665Z,94678.91
2022-10-21T03:45:30.359Z,94669.63
2022-10-21T03:47:58.034Z,94650.47
2022-10-21T03:50:26.821Z,94637.09
2022-10-21T03:52:55.006Z,94637.63
2022-10-21T03:55:24.982Z,94626.69
2022-10-21T03:57:54.317Z,94626.44
2022-10-21T04:00:22.239Z,94634.34
2022-10-21T04:02:50.219Z,94622.63
2022-10-21T04:05:18.537Z,94617.97
2022-10-21T04:07:50.603Z,94607.03
2022-10-21T04:10:21.124Z,94602.09
2022-10-21T04:12:48.783Z,94606.47
2022-10-21T04:15:17.977Z,94586.50
2022-10-21T04:17:46.727Z,94596.34
2022-10-21T04:20:14.707Z,94591.69
2022-10-21T04:22:42.398Z,94590.88
2022-10-21T04:25:10.388Z,94593.09
2022-10-21T04:27:38.057Z,94583.75
2022-10-21T04:30:06.841Z,94576.66
2022-10-21T04:32:36.554Z,94573.91
2022-10-21T04:35:05.021Z,94562.44
2022-10-21T04:37:32.680Z,94559.44
2022-10-21T04:40:00.441Z,94551.50
2022-10-21T04:45:00.671Z,94544.41
2022-10-21T04:47:28.353Z,94535.66
2022-10-21T04:49:57.386Z,94536.50
2022-10-21T04:52:25.059Z,94542.50
2022-10-21T04:54:52.728Z,94550.44
2022-10-21T04:57:20.502Z,94536.75
2022-10-21T04:59:48.199Z,94536.75
2022-10-21T05:02:15.852Z,94533.75
2022-10-21T05:04:43.547Z,94526.91
2022-10-21T05:07:12.582Z,94523.09
2022-10-21T05:09:40.390Z,94525.84
2022-10-21T05:12:08.116Z,94524.72
2022-10-21T05:14:35.781Z,94528.84
2022-10-21T05:17:03.443Z,94528.56
2022-10-21T05:19:31.510Z,94531.56
2022-10-21T05:21:59.380Z,94529.66
2022-10-21T05:24:28.573Z,94535.38
2022-10-21T05:26:56.301Z,94532.38
2022-10-21T05:29:23.928Z,94531.00
2022-10-21T05:31:51.613Z,94524.44
2022-10-21T05:34:19.434Z,94523.09
2022-10-21T05:36:48.580Z,94526.38
2022-10-21T05:39:16.720Z,94516.25
2022-10-21T05:41:47.936Z,94516.50
2022-10-21T05:44:16.314Z,94514.31
2022-10-21T05:46:43.980Z,94505.59
2022-10-21T05:49:12.822Z,94515.13
2022-10-21T05:51:40.524Z,94518.44
2022-10-21T05:54:08.218Z,94518.16
2022-10-21T05:56:35.952Z,94517.59
2022-10-21T05:59:07.872Z,94520.31
2022-10-21T06:01:37.833Z,94514.59
2022-10-21T06:04:05.795Z,94523.88
2022-10-21T06:06:33.713Z,94535.63
2022-10-21T06:09:01.722Z,94531.81
2022-10-21T06:11:29.576Z,94522.25
2022-10-21T06:13:57.362Z,94515.97
2022-10-21T06:16:26.463Z,94528.25
2022-10-21T06:18:54.134Z,94533.97
2022-10-21T06:21:22.757Z,94527.44
2022-10-21T06:23:54.105Z,94523.06
2022-10-21T06:26:21.904Z,94518.97
2022-10-21T06:28:49.710Z,94511.06
2022-10-21T06:31:18.830Z,94497.13
2022-10-21T06:33:48.020Z,94489.75
2022-10-21T06:36:15.779Z,94490.31
2022-10-21T06:38:43.456Z,94483.19
2022-10-21T06:41:13.797Z,94483.72
2022-10-21T06:43:41.922Z,94472.00
2022-10-21T06:46:11.294Z,94479.91
2022-10-21T06:48:39.222Z,94481.84
2022-10-21T06:51:09.735Z,94481.00
2022-10-21T06:53:39.415Z,94478.84
2022-10-21T06:56:09.750Z,94476.66
2022-10-21T06:58:38.317Z,94471.72
2022-10-21T07:01:16.744Z,94471.44
2022-10-21T07:03:56.224Z,94475.84
2022-10-21T07:06:25.750Z,94475.56
2022-10-21T07:08:58.164Z,94480.44
2022-10-21T07:11:26.956Z,94485.09
2022-10-21T07:13:54.689Z,94486.47
2022-10-21T07:16:23.586Z,94472.28
2022-10-21T07:18:51.342Z,94473.34
2022-10-21T07:21:21.253Z,94468.97
2022-10-21T07:23:52.199Z,94459.94
2022-10-21T07:26:20.764Z,94459.94
2022-10-21T07:28:49.229Z,94464.03
2022-10-21T07:31:17.451Z,94445.44
2022-10-21T07:33:45.384Z,94443.28
2022-10-21T07:36:15.182Z,94453.09
2022-10-21T07:38:46.463Z,94453.66
2022-10-21T07:41:19.371Z,94446.25
2022-10-21T07:43:47.568Z,94449.25
2022-10-21T07:46:15.836Z,94449.84
2022-10-21T07:48:43.587Z,94453.09
2022-10-21T07:51:14.004Z,94455.81
2022-10-21T07:53:42.201Z,94451.16
2022-10-21T07:56:14.377Z,94450.31
2022-10-21T07:58:43.289Z,94451.38
2022-10-21T08:01:12.124Z,94454.88
2022-10-21T08:03:40.499Z,94442.25
2022-10-21T08:06:09.573Z,94453.44
2022-10-21T08:08:37.711Z,94452.84
2022-10-21T08:11:06.241Z,94448.72
2022-10-21T08:13:34.980Z,94453.03
2022-10-21T08:16:06.224Z,94459.28
2022-10-21T08:18:34.106Z,94452.09
2022-10-21T08:21:03.886Z,94454.53
2022-10-21T08:23:32.402Z,94461.09
2022-10-21T08:26:01.425Z,94464.31
2022-10-21T08:28:30.378Z,94463.22
2022-10-21T08:31:06.009Z,94470.56
2022-10-21T08:33:33.668Z,94465.06
2022-10-21T08:36:06.078Z,94462.81
2022-10-21T08:38:33.908Z,94457.53
2022-10-21T08:41:02.187Z,94459.94
2022-10-21T08:43:31.222Z,94465.91
2022-10-21T08:46:02.267Z,94470.59
2022-10-21T08:48:35.527Z,94469.50
2022-10-21T08:51:05.257Z,94460.69
2022-10-21T08:53:36.604Z,94465.34
2022-10-21T08:56:07.195Z,94465.34
2022-10-21T08:58:35.172Z,94466.19
2022-10-21T09:01:04.794Z,94467.03
2022-10-21T09:03:38.468Z,94478.28
2022-10-21T09:06:23.790Z,94471.72
2022-10-21T09:09:01.448Z,94472.53
2022-10-21T09:11:37.053Z,94492.72
2022-10-21T09:14:34.088Z,94493.59
2022-10-21T09:17:07.547Z,94531.38
2022-10-21T09:19:43.233Z,94611.16
2022-10-21T09:22:40.788Z,94623.25
2022-10-21T09:25:19.969Z,94606.03
2022-10-21T09:27:56.511Z,94634.06
2022-10-21T09:30:26.076Z,94660.34
2022-10-21T09:32:58.024Z,94634.38
2022-10-21T09:35:33.685Z,94661.22
2022-10-21T09:38:04.244Z,94662.94
2022-10-21T09:40:33.945Z,94638.81
2022-10-21T09:43:02.329Z,94651.44
2022-10-21T09:45:34.133Z,94656.38
2022-10-21T09:48:04.388Z,94656.41
2022-10-21T09:50:34.326Z,94656.91
2022-10-21T09:53:06.558Z,94655.81
2022-10-21T09:55:34.188Z,94660.78
2022-10-21T09:58:03.326Z,94666.81
2022-10-21T10:00:48.527Z,94669.31
2022-10-21T10:03:31.185Z,94665.22
2022-10-21T10:06:00.812Z,94670.13
2022-10-21T10:08:33.858Z,94673.47
2022-10-21T10:11:21.878Z,94680.84
2022-10-21T10:13:51.897Z,94680.88
2022-10-21T10:16:25.651Z,94686.34
2022-10-21T10:18:55.574Z,94672.06
2022-10-21T10:21:25.506Z,94675.09
2022-10-21T10:23:55.232Z,94663.03
2022-10-21T10:26:26.951Z,94678.09
2022-10-21T10:28:59.092Z,94685.47
2022-10-21T10:31:28.216Z,94668.47
2022-10-21T10:34:04.721Z,94700.00
2022-10-21T10:36:38.635Z,94708.19
2022-10-21T10:39:09.555Z,94711.75
2022-10-21T10:41:40.000Z,94699.69
2022-10-21T10:44:15.125Z,94706.25
2022-10-21T10:46:44.676Z,94725.72
2022-10-21T10:49:22.986Z,94735.31
2022-10-21T10:52:07.072Z,94730.38
2022-10-21T12:07:48.948Z,94741.56
2022-10-21T12:14:00.943Z,94744.53
2022-10-21T12:16:59.976Z,94735.69
2022-10-21T12:19:29.473Z,94741.69
2022-10-21T12:22:28.175Z,94734.22
2022-10-21T12:25:03.493Z,94725.66
2022-10-21T12:28:13.150Z,94738.22
2022-10-21T12:31:36.403Z,94731.31
2022-10-21T12:34:05.266Z,94741.22
2022-10-21T12:36:41.386Z,94740.97
2022-10-21T12:39:40.676Z,94749.75
2022-10-21T12:42:13.559Z,94749.75
2022-10-21T12:44:46.675Z,94744.25
2022-10-21T12:47:24.857Z,94749.75
2022-10-21T12:50:07.725Z,94746.47
2022-10-21T12:52:38.584Z,94745.63
2022-10-21T12:55:08.895Z,94740.94
2022-10-21T12:57:39.827Z,94742.56
2022-10-21T13:00:51.832Z,94748.94
2022-10-21T13:03:22.359Z,94753.59
2022-10-21T13:06:06.738Z,94756.91
2022-10-21T13:08:53.434Z,94748.72
2022-10-21T13:11:23.955Z,94752.88
2022-10-21T13:14:24.081Z,94754.00
2022-10-21T13:16:53.246Z,94751.03
2022-10-21T13:19:33.948Z,94758.25
2022-10-21T13:22:03.393Z,94763.47
2022-10-21T13:24:32.990Z,94764.91
2022-10-21T13:27:02.184Z,94763.28
2022-10-21T13:29:43.822Z,94759.75
2022-10-21T13:32:25.820Z,94779.78
2022-10-21T13:35:00.354Z,94777.84
2022-10-21T13:37:31.522Z,94763.88
2022-10-21T13:40:00.616Z,94762.28
2022-10-21T13:42:33.754Z,94763.91
2022-10-21T13:45:19.521Z,94757.38
2022-10-21T13:48:00.476Z,94761.25
2022-10-21T13:50:31.569Z,94750.53
2022-10-21T13:52:59.998Z,94753.03
2022-10-21T13:55:27.861Z,94743.75
2022-10-21T13:57:56.971Z,94741.88
2022-10-21T14:00:26.584Z,94746.78
2022-10-21T14:03:00.546Z,94752.31
2022-10-21T14:05:34.190Z,94739.44
2022-10-21T14:08:02.334Z,94755.63
2022-10-21T14:10:31.012Z,94749.84
2022-10-21T14:15:37.705Z,94736.09
2022-10-21T14:18:08.810Z,94736.66
2022-10-21T14:20:39.352Z,94741.06
2022-10-21T14:23:09.768Z,94741.09
2022-10-21T14:25:38.959Z,94743.88
2022-10-21T14:28:07.561Z,94745.25
2022-10-21T14:30:37.843Z,94743.88
2022-10-21T14:33:11.849Z,94743.88
2022-10-21T14:35:41.236Z,94738.38
2022-10-21T14:38:28.804Z,94740.03
2022-10-21T14:43:33.789Z,94742.81
2022-10-21T14:46:03.467Z,94746.63
2022-10-21T14:48:51.591Z,94749.38
2022-10-21T14:51:21.524Z,94753.22
2022-10-21T14:53:54.987Z,94748.84
2022-10-21T14:56:30.642Z,94748.31
2022-10-21T14:58:59.896Z,94746.38
2022-10-21T15:01:28.147Z,94749.41
2022-10-21T16:06:00.820Z,94732.56
2022-10-21T16:08:48.190Z,94736.69
2022-10-21T17:40:25.577Z,94732.09
2022-10-21T17:42:54.017Z,94737.00
2022-10-21T17:45:22.856Z,94726.06
2022-10-21T17:47:50.815Z,94734.56
2022-10-21T17:50:23.462Z,94737.00
2022-10-21T17:52:51.809Z,94733.72
2022-10-21T17:55:19.770Z,94729.91
2022-10-21T17:57:48.849Z,94733.19
2022-10-21T18:00:16.679Z,94735.66
2022-10-21T18:02:44.528Z,94723.34
2022-10-21T18:05:12.513Z,94725.78
2022-10-21T18:07:40.496Z,94723.06
2022-10-21T18:10:09.345Z,94714.56
2022-10-21T18:12:37.258Z,94716.75
2022-10-21T18:15:07.457Z,94714.56
2022-10-21T18:17:37.777Z,94717.84
2022-10-21T18:20:08.699Z,94710.47
2022-10-21T18:22:36.524Z,94709.94
2022-10-21T18:25:04.893Z,94710.47
2022-10-21T18:27:32.878Z,94707.19
2022-10-21T18:30:00.768Z,94711.56
2022-10-21T18:32:30.070Z,94704.19
2022-10-21T18:34:58.251Z,94696.25
2022-10-21T18:37:26.007Z,94693.22
2022-10-21T18:39:56.738Z,94692.38
2022-10-21T18:42:26.766Z,94686.63
2022-10-21T18:44:54.423Z,94682.81
2022-10-21T18:47:22.219Z,94683.38
2022-10-21T18:49:52.140Z,94690.50
2022-10-21T18:52:19.804Z,94695.69
2022-10-21T18:54:47.523Z,94691.03
2022-10-21T18:57:15.215Z,94682.81
2022-10-21T18:59:42.946Z,94676.78
2022-10-21T19:02:14.054Z,94683.88
2022-10-21T19:04:42.398Z,94678.41
2022-10-21T19:07:11.478Z,94680.88
2022-10-21T19:09:39.137Z,94682.00
2022-10-21T19:12:10.529Z,94677.34
2022-10-21T19:14:41.253Z,94682.53
2022-10-21T19:17:10.166Z,94682.28
2022-10-21T19:19:39.586Z,94682.28
2022-10-21T19:22:07.326Z,94686.63
2022-10-21T19:24:36.529Z,94686.63
2022-10-21T19:27:04.270Z,94688.28
2022-10-21T19:29:32.017Z,94684.72
2022-10-21T19:31:59.658Z,94685.00
2022-10-21T19:34:27.642Z,94686.94
2022-10-21T19:36:55.458Z,94693.75
2022-10-21T19:39:23.228Z,94700.03
2022-10-21T19:41:52.357Z,94706.38
2022-10-21T19:44:20.027Z,94703.03
2022-10-21T19:46:47.759Z,94704.69
2022-10-21T19:49:15.837Z,94704.44
2022-10-21T19:51:43.523Z,94696.50
2022-10-21T19:54:13.175Z,94692.94
2022-10-21T19:56:41.337Z,94671.03
2022-10-21T19:59:11.268Z,94669.66
2022-10-21T20:01:39.078Z,94673.50
2022-10-21T20:04:07.350Z,94647.22
2022-10-21T20:06:36.509Z,94647.50
2022-10-21T20:09:06.853Z,94635.75
2022-10-21T20:11:34.965Z,94643.94
2022-10-21T20:14:02.729Z,94646.69
2022-10-21T20:16:33.880Z,94640.38
2022-10-21T20:19:02.283Z,94632.41
2022-10-21T20:21:31.354Z,94637.34
2022-10-21T20:23:59.703Z,94633.22
2022-10-21T20:26:28.752Z,94632.94
2022-10-21T20:28:56.594Z,94637.31
2022-10-21T20:31:24.444Z,94625.81
2022-10-21T20:33:53.542Z,94628.25
2022-10-21T20:36:23.363Z,94634.81
2022-10-21T20:38:52.301Z,94635.34
2022-10-21T20:41:22.104Z,94641.66
2022-10-21T20:43:50.515Z,94644.91
2022-10-21T20:46:19.308Z,94649.56
2022-10-21T20:48:49.164Z,94642.72
2022-10-21T20:51:20.337Z,94655.91
2022-10-21T20:53:49.232Z,94649.03
2022-10-21T20:56:17.109Z,94646.84
2022-10-21T20:58:45.215Z,94637.56
2022-10-21T21:01:14.673Z,94659.47
2022-10-21T21:03:42.984Z,94650.72
2022-10-21T21:06:11.672Z,94659.47
2022-10-21T21:08:48.921Z,94645.53
2022-10-21T21:11:21.832Z,94646.91
2022-10-21T21:13:49.633Z,94651.56
2022-10-21T21:16:18.989Z,94647.44
2022-10-21T21:18:51.921Z,94648.31
2022-10-21T21:21:20.832Z,94652.94
2022-10-21T21:23:50.400Z,94661.44
2022-10-21T21:26:20.297Z,94661.44
2022-10-21T21:28:49.043Z,94650.78
2022-10-21T21:31:16.744Z,94649.69
2022-10-21T21:33:45.360Z,94655.44
2022-10-21T21:36:13.504Z,94654.34
2022-10-21T21:38:41.546Z,94661.47
2022-10-21T21:41:11.151Z,94663.69
2022-10-21T21:43:41.466Z,94667.78
2022-10-21T21:46:09.409Z,94680.38
2022-10-21T21:48:37.184Z,94672.44
2022-10-21T21:51:07.456Z,94680.09
2022-10-21T21:53:35.118Z,94675.72
2022-10-21T21:56:03.621Z,94679.53
2022-10-21T21:58:32.845Z,94681.75
2022-10-21T22:01:09.373Z,94674.63
2022-10-21T22:03:37.107Z,94679.00
2022-10-21T22:06:05.487Z,94680.09
2022-10-21T22:08:33.387Z,94671.06
2022-10-21T22:11:08.397Z,94662.84
2022-10-21T22:13:38.296Z,94657.66
2022-10-21T22:16:06.803Z,94661.50
2022-10-21T22:18:34.488Z,94658.47
2022-10-21T22:21:02.872Z,94663.13
2022-10-21T22:23:30.556Z,94660.13
2022-10-21T22:25:58.941Z,94659.31
2022-10-21T22:28:26.937Z,94655.47
2022-10-21T22:30:58.764Z,94649.44
2022-10-21T22:33:26.791Z,94641.50
2022-10-21T22:35:54.546Z,94632.22
2022-10-21T22:38:22.261Z,94632.22
2022-10-21T22:40:53.523Z,94633.03
2022-10-21T22:43:21.171Z,94622.63
2022-10-21T22:45:48.900Z,94622.34
2022-10-21T22:48:18.139Z,94627.81
2022-10-21T22:50:45.844Z,94633.31
2022-10-21T22:53:13.713Z,94631.94
2022-10-21T22:55:41.477Z,94621.00
2022-10-21T22:58:15.609Z,94624.81
2022-10-21T23:00:43.335Z,94625.34
2022-10-21T23:03:11.110Z,94625.66
2022-10-21T23:05:40.164Z,94632.50
2022-10-21T23:08:07.968Z,94633.56
2022-10-21T23:10:35.656Z,94639.63
2022-10-21T23:13:05.333Z,94636.88
2022-10-21T23:15:33.628Z,94635.75
2022-10-21T23:18:01.617Z,94646.16
2022-10-21T23:20:29.654Z,94654.94
2022-10-21T23:22:59.127Z,94647.25
2022-10-21T23:25:30.307Z,94643.44
2022-10-21T23:27:58.495Z,94642.34
2022-10-21T23:30:27.500Z,94646.72
2022-10-21T23:32:55.843Z,94649.44
2022-10-21T23:35:26.752Z,94644.53
2022-10-21T23:37:56.261Z,94639.03
2022-10-21T23:40:26.571Z,94633.03
2022-10-21T23:42:57.544Z,94629.75
2022-10-21T23:45:25.298Z,94631.38
2022-10-21T23:47:53.025Z,94620.44
2022-10-21T23:50:20.979Z,94622.66
2022-10-21T23:52:48.785Z,94634.41
2022-10-21T23:55:16.875Z,94630.59
2022-10-21T23:57:46.294Z,94627.31
